sensor_id;sensor_type;location;lat;lon;timestamp;P1;durP1;ratioP1;P2;durP2;ratioP2
49241;SDS011;35079;52.704;13.814;2023-04-01T00:02:22;16.20;;;7.55;;
49241;SDS011;35079;52.704;13.814;2023-04-01T00:04:48;12.38;;;6.53;;
49241;SDS011;35079;52.704;13.814;2023-04-01T00:07:13;30.48;;;7.97;;
49241;SDS011;35079;52.704;13.814;2023-04-01T00:09:39;36.28;;;7.53;;
49241;SDS011;35079;52.704;13.814;2023-04-01T00:12:04;16.20;;;6.78;;
49241;SDS011;35079;52.704;13.814;2023-04-01T00:14:30;13.50;;;6.60;;
49241;SDS011;35079;52.704;13.814;2023-04-01T00:16:56;21.33;;;7.82;;
49241;SDS011;35079;52.704;13.814;2023-04-01T00:19:21;25.00;;;7.80;;
49241;SDS011;35079;52.704;13.814;2023-04-01T00:21:47;16.17;;;7.63;;
49241;SDS011;35079;52.704;13.814;2023-04-01T00:24:13;16.95;;;8.05;;
49241;SDS011;35079;52.704;13.814;2023-04-01T00:26:39;17.13;;;8.00;;
49241;SDS011;35079;52.704;13.814;2023-04-01T00:29:07;21.33;;;8.32;;
49241;SDS011;35079;52.704;13.814;2023-04-01T00:31:33;21.98;;;10.13;;
49241;SDS011;35079;52.704;13.814;2023-04-01T00:33:59;20.30;;;9.52;;
49241;SDS011;35079;52.704;13.814;2023-04-01T00:36:25;32.05;;;11.35;;
49241;SDS011;35079;52.704;13.814;2023-04-01T00:38:50;32.40;;;10.43;;
49241;SDS011;35079;52.704;13.814;2023-04-01T00:41:17;34.55;;;11.98;;
49241;SDS011;35079;52.704;13.814;2023-04-01T00:43:44;28.55;;;9.88;;
49241;SDS011;35079;52.704;13.814;2023-04-01T00:46:12;23.80;;;11.70;;
49241;SDS011;35079;52.704;13.814;2023-04-01T00:48:39;30.77;;;13.55;;
49241;SDS011;35079;52.704;13.814;2023-04-01T00:51:18;24.95;;;11.02;;
49241;SDS011;35079;52.704;13.814;2023-04-01T00:53:51;30.92;;;11.23;;
49241;SDS011;35079;52.704;13.814;2023-04-01T00:56:19;32.85;;;11.98;;
49241;SDS011;35079;52.704;13.814;2023-04-01T00:58:51;36.90;;;10.45;;
49241;SDS011;35079;52.704;13.814;2023-04-01T01:01:23;40.40;;;12.23;;
49241;SDS011;35079;52.704;13.814;2023-04-01T01:03:50;25.33;;;12.15;;
49241;SDS011;35079;52.704;13.814;2023-04-01T01:11:20;63.05;;;13.82;;
49241;SDS011;35079;52.704;13.814;2023-04-01T01:14:19;35.13;;;14.07;;
49241;SDS011;35079;52.704;13.814;2023-04-01T01:16:58;84.40;;;15.77;;
49241;SDS011;35079;52.704;13.814;2023-04-01T01:22:17;49.25;;;14.05;;
49241;SDS011;35079;52.704;13.814;2023-04-01T01:28:22;55.97;;;13.52;;
49241;SDS011;35079;52.704;13.814;2023-04-01T01:31:02;47.50;;;14.05;;
49241;SDS011;35079;52.704;13.814;2023-04-01T01:36:41;39.78;;;12.95;;
49241;SDS011;35079;52.704;13.814;2023-04-01T01:39:10;50.42;;;13.63;;
49241;SDS011;35079;52.704;13.814;2023-04-01T01:41:39;31.35;;;13.52;;
49241;SDS011;35079;52.704;13.814;2023-04-01T01:44:08;31.00;;;14.90;;
49241;SDS011;35079;52.704;13.814;2023-04-01T01:46:36;42.63;;;17.23;;
49241;SDS011;35079;52.704;13.814;2023-04-01T01:49:04;29.23;;;15.57;;
49241;SDS011;35079;52.704;13.814;2023-04-01T01:51:32;50.28;;;15.52;;
49241;SDS011;35079;52.704;13.814;2023-04-01T01:53:58;84.10;;;17.65;;
49241;SDS011;35079;52.704;13.814;2023-04-01T01:56:25;48.92;;;16.60;;
49241;SDS011;35079;52.704;13.814;2023-04-01T01:58:54;31.85;;;14.15;;
49241;SDS011;35079;52.704;13.814;2023-04-01T02:01:28;35.78;;;17.02;;
49241;SDS011;35079;52.704;13.814;2023-04-01T02:03:56;32.42;;;15.43;;
49241;SDS011;35079;52.704;13.814;2023-04-01T02:06:23;30.98;;;15.13;;
49241;SDS011;35079;52.704;13.814;2023-04-01T02:08:57;57.17;;;15.15;;
49241;SDS011;35079;52.704;13.814;2023-04-01T02:11:48;36.15;;;14.68;;
49241;SDS011;35079;52.704;13.814;2023-04-01T02:14:25;29.75;;;14.20;;
49241;SDS011;35079;52.704;13.814;2023-04-01T02:17:14;62.25;;;16.70;;
49241;SDS011;35079;52.704;13.814;2023-04-01T02:19:56;66.78;;;15.30;;
49241;SDS011;35079;52.704;13.814;2023-04-01T02:22:30;34.00;;;15.70;;
49241;SDS011;35079;52.704;13.814;2023-04-01T02:25:00;42.47;;;15.43;;
49241;SDS011;35079;52.704;13.814;2023-04-01T02:27:31;56.17;;;16.73;;
49241;SDS011;35079;52.704;13.814;2023-04-01T02:29:57;30.42;;;14.68;;
49241;SDS011;35079;52.704;13.814;2023-04-01T02:32:23;79.28;;;15.70;;
49241;SDS011;35079;52.704;13.814;2023-04-01T02:34:50;40.47;;;13.93;;
49241;SDS011;35079;52.704;13.814;2023-04-01T02:37:16;26.77;;;13.18;;
49241;SDS011;35079;52.704;13.814;2023-04-01T02:39:43;27.17;;;14.48;;
49241;SDS011;35079;52.704;13.814;2023-04-01T02:42:08;34.33;;;12.68;;
49241;SDS011;35079;52.704;13.814;2023-04-01T02:44:35;29.90;;;12.35;;
49241;SDS011;35079;52.704;13.814;2023-04-01T02:47:00;23.27;;;12.88;;
49241;SDS011;35079;52.704;13.814;2023-04-01T02:49:26;20.20;;;12.15;;
49241;SDS011;35079;52.704;13.814;2023-04-01T02:51:52;20.00;;;11.63;;
49241;SDS011;35079;52.704;13.814;2023-04-01T02:54:18;20.30;;;12.13;;
49241;SDS011;35079;52.704;13.814;2023-04-01T02:56:44;28.05;;;13.18;;
49241;SDS011;35079;52.704;13.814;2023-04-01T02:59:10;19.33;;;11.07;;
49241;SDS011;35079;52.704;13.814;2023-04-01T03:01:36;25.10;;;11.95;;
49241;SDS011;35079;52.704;13.814;2023-04-01T03:04:02;25.95;;;11.90;;
49241;SDS011;35079;52.704;13.814;2023-04-01T03:06:28;18.40;;;11.68;;
49241;SDS011;35079;52.704;13.814;2023-04-01T03:08:53;20.35;;;11.25;;
49241;SDS011;35079;52.704;13.814;2023-04-01T03:11:19;29.05;;;12.07;;
49241;SDS011;35079;52.704;13.814;2023-04-01T03:13:46;33.70;;;12.77;;
49241;SDS011;35079;52.704;13.814;2023-04-01T03:16:11;20.70;;;11.15;;
49241;SDS011;35079;52.704;13.814;2023-04-01T03:18:37;19.80;;;11.60;;
49241;SDS011;35079;52.704;13.814;2023-04-01T03:21:16;33.35;;;13.02;;
49241;SDS011;35079;52.704;13.814;2023-04-01T03:23:44;21.67;;;11.98;;
49241;SDS011;35079;52.704;13.814;2023-04-01T03:26:09;20.30;;;11.60;;
49241;SDS011;35079;52.704;13.814;2023-04-01T03:28:35;21.17;;;11.55;;
49241;SDS011;35079;52.704;13.814;2023-04-01T03:31:01;22.40;;;11.75;;
49241;SDS011;35079;52.704;13.814;2023-04-01T03:33:27;19.70;;;11.35;;
49241;SDS011;35079;52.704;13.814;2023-04-01T03:35:52;23.73;;;11.60;;
49241;SDS011;35079;52.704;13.814;2023-04-01T03:38:18;23.77;;;12.18;;
49241;SDS011;35079;52.704;13.814;2023-04-01T03:40:44;18.15;;;10.75;;
49241;SDS011;35079;52.704;13.814;2023-04-01T03:43:10;22.58;;;11.18;;
49241;SDS011;35079;52.704;13.814;2023-04-01T03:45:36;23.08;;;12.10;;
49241;SDS011;35079;52.704;13.814;2023-04-01T03:48:12;25.10;;;11.18;;
49241;SDS011;35079;52.704;13.814;2023-04-01T03:50:38;20.23;;;11.38;;
49241;SDS011;35079;52.704;13.814;2023-04-01T03:53:03;20.92;;;11.43;;
49241;SDS011;35079;52.704;13.814;2023-04-01T03:55:29;20.55;;;10.70;;
49241;SDS011;35079;52.704;13.814;2023-04-01T03:57:55;24.08;;;10.68;;
49241;SDS011;35079;52.704;13.814;2023-04-01T04:00:20;25.75;;;11.50;;
49241;SDS011;35079;52.704;13.814;2023-04-01T04:02:46;21.02;;;10.98;;
49241;SDS011;35079;52.704;13.814;2023-04-01T04:05:12;22.77;;;10.75;;
49241;SDS011;35079;52.704;13.814;2023-04-01T04:07:38;18.52;;;11.07;;
49241;SDS011;35079;52.704;13.814;2023-04-01T04:10:04;19.88;;;11.20;;
49241;SDS011;35079;52.704;13.814;2023-04-01T04:12:30;17.90;;;10.45;;
49241;SDS011;35079;52.704;13.814;2023-04-01T04:14:56;21.90;;;11.15;;
49241;SDS011;35079;52.704;13.814;2023-04-01T04:17:22;27.33;;;11.10;;
49241;SDS011;35079;52.704;13.814;2023-04-01T04:19:47;17.35;;;10.75;;
49241;SDS011;35079;52.704;13.814;2023-04-01T04:22:13;18.85;;;10.00;;
49241;SDS011;35079;52.704;13.814;2023-04-01T04:24:38;20.00;;;10.35;;
49241;SDS011;35079;52.704;13.814;2023-04-01T04:27:04;26.33;;;10.77;;
49241;SDS011;35079;52.704;13.814;2023-04-01T04:29:30;30.60;;;10.75;;
49241;SDS011;35079;52.704;13.814;2023-04-01T04:31:56;20.98;;;9.90;;
49241;SDS011;35079;52.704;13.814;2023-04-01T04:34:21;16.67;;;10.15;;
49241;SDS011;35079;52.704;13.814;2023-04-01T04:36:47;25.70;;;10.45;;
49241;SDS011;35079;52.704;13.814;2023-04-01T04:39:13;25.83;;;10.82;;
49241;SDS011;35079;52.704;13.814;2023-04-01T04:41:39;16.75;;;10.73;;
49241;SDS011;35079;52.704;13.814;2023-04-01T04:44:05;16.63;;;10.25;;
49241;SDS011;35079;52.704;13.814;2023-04-01T04:46:30;20.77;;;10.40;;
49241;SDS011;35079;52.704;13.814;2023-04-01T04:48:56;21.00;;;9.77;;
49241;SDS011;35079;52.704;13.814;2023-04-01T04:51:22;22.90;;;10.75;;
49241;SDS011;35079;52.704;13.814;2023-04-01T04:53:48;20.52;;;9.57;;
49241;SDS011;35079;52.704;13.814;2023-04-01T04:56:18;15.40;;;9.10;;
49241;SDS011;35079;52.704;13.814;2023-04-01T04:58:45;21.45;;;10.63;;
49241;SDS011;35079;52.704;13.814;2023-04-01T05:01:13;21.08;;;10.55;;
49241;SDS011;35079;52.704;13.814;2023-04-01T05:03:40;23.10;;;11.35;;
49241;SDS011;35079;52.704;13.814;2023-04-01T05:06:07;25.05;;;10.77;;
49241;SDS011;35079;52.704;13.814;2023-04-01T05:08:34;26.02;;;11.55;;
49241;SDS011;35079;52.704;13.814;2023-04-01T05:11:00;23.48;;;10.77;;
49241;SDS011;35079;52.704;13.814;2023-04-01T05:13:26;19.83;;;10.20;;
49241;SDS011;35079;52.704;13.814;2023-04-01T05:15:52;17.73;;;10.43;;
49241;SDS011;35079;52.704;13.814;2023-04-01T05:18:18;20.42;;;10.43;;
49241;SDS011;35079;52.704;13.814;2023-04-01T05:20:48;24.02;;;10.88;;
49241;SDS011;35079;52.704;13.814;2023-04-01T05:23:15;20.50;;;11.10;;
49241;SDS011;35079;52.704;13.814;2023-04-01T05:25:41;22.63;;;11.45;;
49241;SDS011;35079;52.704;13.814;2023-04-01T05:28:07;22.02;;;10.90;;
49241;SDS011;35079;52.704;13.814;2023-04-01T05:30:33;29.05;;;12.60;;
49241;SDS011;35079;52.704;13.814;2023-04-01T05:32:58;27.75;;;12.98;;
49241;SDS011;35079;52.704;13.814;2023-04-01T05:35:24;27.15;;;11.93;;
49241;SDS011;35079;52.704;13.814;2023-04-01T05:37:49;38.90;;;13.45;;
49241;SDS011;35079;52.704;13.814;2023-04-01T05:40:16;32.83;;;13.10;;
49241;SDS011;35079;52.704;13.814;2023-04-01T05:42:42;42.13;;;13.30;;
49241;SDS011;35079;52.704;13.814;2023-04-01T05:45:07;41.25;;;12.95;;
49241;SDS011;35079;52.704;13.814;2023-04-01T05:47:33;33.97;;;12.95;;
49241;SDS011;35079;52.704;13.814;2023-04-01T05:49:59;34.80;;;11.75;;
49241;SDS011;35079;52.704;13.814;2023-04-01T05:52:25;33.22;;;11.90;;
49241;SDS011;35079;52.704;13.814;2023-04-01T05:54:50;24.60;;;9.95;;
49241;SDS011;35079;52.704;13.814;2023-04-01T05:57:16;18.70;;;8.82;;
49241;SDS011;35079;52.704;13.814;2023-04-01T05:59:42;12.82;;;7.90;;
49241;SDS011;35079;52.704;13.814;2023-04-01T06:02:08;13.75;;;7.25;;
49241;SDS011;35079;52.704;13.814;2023-04-01T06:04:37;17.98;;;8.23;;
49241;SDS011;35079;52.704;13.814;2023-04-01T06:07:14;20.27;;;8.45;;
49241;SDS011;35079;52.704;13.814;2023-04-01T06:09:41;20.85;;;9.48;;
49241;SDS011;35079;52.704;13.814;2023-04-01T06:14:59;21.45;;;10.02;;
49241;SDS011;35079;52.704;13.814;2023-04-01T06:20:59;28.90;;;12.27;;
49241;SDS011;35079;52.704;13.814;2023-04-01T06:35:19;26.02;;;12.55;;
49241;SDS011;35079;52.704;13.814;2023-04-01T06:37:34;28.55;;;13.60;;
49241;SDS011;35079;52.704;13.814;2023-04-01T06:43:50;26.90;;;12.77;;
49241;SDS011;35079;52.704;13.814;2023-04-01T06:46:38;23.73;;;12.55;;
49241;SDS011;35079;52.704;13.814;2023-04-01T06:52:01;22.20;;;13.00;;
49241;SDS011;35079;52.704;13.814;2023-04-01T06:54:39;22.45;;;13.00;;
49241;SDS011;35079;52.704;13.814;2023-04-01T06:57:19;22.50;;;13.23;;
49241;SDS011;35079;52.704;13.814;2023-04-01T07:00:14;22.70;;;12.85;;
49241;SDS011;35079;52.704;13.814;2023-04-01T07:02:50;21.90;;;13.20;;
49241;SDS011;35079;52.704;13.814;2023-04-01T07:05:23;22.13;;;13.68;;
49241;SDS011;35079;52.704;13.814;2023-04-01T07:07:53;25.65;;;13.70;;
49241;SDS011;35079;52.704;13.814;2023-04-01T07:10:27;23.08;;;14.27;;
49241;SDS011;35079;52.704;13.814;2023-04-01T07:13:18;24.73;;;13.30;;
49241;SDS011;35079;52.704;13.814;2023-04-01T07:15:54;23.48;;;13.93;;
49241;SDS011;35079;52.704;13.814;2023-04-01T07:20:53;26.90;;;14.50;;
49241;SDS011;35079;52.704;13.814;2023-04-01T07:23:21;22.27;;;13.55;;
49241;SDS011;35079;52.704;13.814;2023-04-01T07:25:54;30.02;;;15.57;;
49241;SDS011;35079;52.704;13.814;2023-04-01T07:28:26;21.10;;;15.25;;
49241;SDS011;35079;52.704;13.814;2023-04-01T07:44:31;20.83;;;14.00;;
49241;SDS011;35079;52.704;13.814;2023-04-01T07:50:02;18.23;;;13.10;;
49241;SDS011;35079;52.704;13.814;2023-04-01T07:57:30;16.33;;;13.15;;
49241;SDS011;35079;52.704;13.814;2023-04-01T08:02:50;16.48;;;12.30;;
49241;SDS011;35079;52.704;13.814;2023-04-01T08:05:44;17.35;;;13.32;;
49241;SDS011;35079;52.704;13.814;2023-04-01T08:13:53;16.42;;;13.27;;
49241;SDS011;35079;52.704;13.814;2023-04-01T08:16:47;17.83;;;13.90;;
49241;SDS011;35079;52.704;13.814;2023-04-01T08:19:30;19.00;;;14.18;;
49241;SDS011;35079;52.704;13.814;2023-04-01T08:25:21;19.20;;;14.32;;
49241;SDS011;35079;52.704;13.814;2023-04-01T08:27:56;17.83;;;13.43;;
49241;SDS011;35079;52.704;13.814;2023-04-01T08:38:33;15.15;;;12.25;;
49241;SDS011;35079;52.704;13.814;2023-04-01T08:41:03;14.43;;;11.93;;
49241;SDS011;35079;52.704;13.814;2023-04-01T08:44:04;13.57;;;11.20;;
49241;SDS011;35079;52.704;13.814;2023-04-01T08:52:18;13.32;;;9.77;;
49241;SDS011;35079;52.704;13.814;2023-04-01T08:55:22;10.35;;;9.10;;
49241;SDS011;35079;52.704;13.814;2023-04-01T09:03:37;11.32;;;7.88;;
49241;SDS011;35079;52.704;13.814;2023-04-01T09:14:48;8.77;;;7.03;;
49241;SDS011;35079;52.704;13.814;2023-04-01T09:17:31;8.68;;;7.65;;
49241;SDS011;35079;52.704;13.814;2023-04-01T09:20:29;10.07;;;7.13;;
49241;SDS011;35079;52.704;13.814;2023-04-01T09:28:50;8.23;;;6.80;;
49241;SDS011;35079;52.704;13.814;2023-04-01T09:36:41;7.03;;;6.07;;
49241;SDS011;35079;52.704;13.814;2023-04-01T09:44:35;6.50;;;5.60;;
49241;SDS011;35079;52.704;13.814;2023-04-01T09:47:10;6.93;;;5.57;;
49241;SDS011;35079;52.704;13.814;2023-04-01T09:50:06;10.15;;;5.72;;
49241;SDS011;35079;52.704;13.814;2023-04-01T09:53:00;6.90;;;5.28;;
49241;SDS011;35079;52.704;13.814;2023-04-01T10:01:21;7.20;;;5.75;;
49241;SDS011;35079;52.704;13.814;2023-04-01T10:23:40;5.50;;;4.30;;
49241;SDS011;35079;52.704;13.814;2023-04-01T10:26:42;5.32;;;4.28;;
49241;SDS011;35079;52.704;13.814;2023-04-01T10:30:03;4.20;;;3.80;;
49241;SDS011;35079;52.704;13.814;2023-04-01T11:42:46;8.07;;;5.35;;
49241;SDS011;35079;52.704;13.814;2023-04-01T11:49:05;4.50;;;4.10;;
49241;SDS011;35079;52.704;13.814;2023-04-01T11:57:09;9.82;;;7.72;;
49241;SDS011;35079;52.704;13.814;2023-04-01T12:10:49;7.93;;;7.13;;
49241;SDS011;35079;52.704;13.814;2023-04-01T12:13:39;9.65;;;8.05;;
49241;SDS011;35079;52.704;13.814;2023-04-01T12:30:12;9.85;;;7.22;;
49241;SDS011;35079;52.704;13.814;2023-04-01T12:35:29;8.23;;;6.18;;
49241;SDS011;35079;52.704;13.814;2023-04-01T12:38:28;7.32;;;6.57;;
49241;SDS011;35079;52.704;13.814;2023-04-01T12:44:36;7.93;;;6.72;;
49241;SDS011;35079;52.704;13.814;2023-04-01T12:55:37;8.73;;;7.82;;
49241;SDS011;35079;52.704;13.814;2023-04-01T13:12:19;10.10;;;8.38;;
49241;SDS011;35079;52.704;13.814;2023-04-01T13:15:11;9.55;;;8.38;;
49241;SDS011;35079;52.704;13.814;2023-04-01T13:27:01;11.00;;;7.88;;
49241;SDS011;35079;52.704;13.814;2023-04-01T13:41:22;8.90;;;6.88;;
49241;SDS011;35079;52.704;13.814;2023-04-01T13:52:38;10.25;;;7.95;;
49241;SDS011;35079;52.704;13.814;2023-04-01T13:58:11;9.38;;;7.47;;
49241;SDS011;35079;52.704;13.814;2023-04-01T14:15:04;10.68;;;7.88;;
49241;SDS011;35079;52.704;13.814;2023-04-01T14:17:52;10.48;;;8.18;;
49241;SDS011;35079;52.704;13.814;2023-04-01T14:20:29;10.52;;;8.30;;
49241;SDS011;35079;52.704;13.814;2023-04-01T14:23:12;9.70;;;8.23;;
49241;SDS011;35079;52.704;13.814;2023-04-01T14:28:59;9.23;;;8.00;;
49241;SDS011;35079;52.704;13.814;2023-04-01T14:37:13;14.10;;;11.35;;
49241;SDS011;35079;52.704;13.814;2023-04-01T14:50:49;10.13;;;7.45;;
49241;SDS011;35079;52.704;13.814;2023-04-01T14:53:34;11.48;;;7.63;;
49241;SDS011;35079;52.704;13.814;2023-04-01T14:56:07;9.60;;;6.72;;
49241;SDS011;35079;52.704;13.814;2023-04-01T15:20:33;10.65;;;8.60;;
49241;SDS011;35079;52.704;13.814;2023-04-01T15:25:57;12.63;;;9.70;;
49241;SDS011;35079;52.704;13.814;2023-04-01T15:28:36;11.43;;;9.10;;
49241;SDS011;35079;52.704;13.814;2023-04-01T15:33:47;11.55;;;8.95;;
49241;SDS011;35079;52.704;13.814;2023-04-01T15:36:33;10.90;;;8.15;;
49241;SDS011;35079;52.704;13.814;2023-04-01T15:41:51;12.60;;;9.05;;
49241;SDS011;35079;52.704;13.814;2023-04-01T15:46:58;13.52;;;8.32;;
49241;SDS011;35079;52.704;13.814;2023-04-01T15:49:33;10.43;;;8.65;;
49241;SDS011;35079;52.704;13.814;2023-04-01T16:00:20;8.25;;;5.75;;
49241;SDS011;35079;52.704;13.814;2023-04-01T16:05:42;8.32;;;6.38;;
49241;SDS011;35079;52.704;13.814;2023-04-01T16:16:14;12.73;;;7.13;;
49241;SDS011;35079;52.704;13.814;2023-04-01T16:21:51;7.40;;;6.47;;
49241;SDS011;35079;52.704;13.814;2023-04-01T16:34:19;7.90;;;6.88;;
49241;SDS011;35079;52.704;13.814;2023-04-01T16:39:30;10.38;;;7.18;;
49241;SDS011;35079;52.704;13.814;2023-04-01T16:47:50;9.77;;;6.68;;
49241;SDS011;35079;52.704;13.814;2023-04-01T16:50:48;7.97;;;7.13;;
49241;SDS011;35079;52.704;13.814;2023-04-01T16:54:05;9.52;;;7.20;;
49241;SDS011;35079;52.704;13.814;2023-04-01T16:56:42;7.85;;;6.40;;
49241;SDS011;35079;52.704;13.814;2023-04-01T16:59:27;7.65;;;6.80;;
49241;SDS011;35079;52.704;13.814;2023-04-01T17:12:55;9.27;;;7.13;;
49241;SDS011;35079;52.704;13.814;2023-04-01T17:15:39;9.25;;;7.03;;
49241;SDS011;35079;52.704;13.814;2023-04-01T17:20:50;8.52;;;6.18;;
49241;SDS011;35079;52.704;13.814;2023-04-01T17:28:48;8.88;;;6.90;;
49241;SDS011;35079;52.704;13.814;2023-04-01T17:42:42;8.55;;;5.93;;
49241;SDS011;35079;52.704;13.814;2023-04-01T17:45:21;9.53;;;6.20;;
49241;SDS011;35079;52.704;13.814;2023-04-01T18:01:30;9.40;;;5.75;;
49241;SDS011;35079;52.704;13.814;2023-04-01T18:06:34;11.20;;;6.70;;
49241;SDS011;35079;52.704;13.814;2023-04-01T18:14:33;12.60;;;6.60;;
49241;SDS011;35079;52.704;13.814;2023-04-01T18:23:13;10.40;;;6.80;;
49241;SDS011;35079;52.704;13.814;2023-04-01T18:25:54;16.15;;;7.80;;
49241;SDS011;35079;52.704;13.814;2023-04-01T18:28:44;17.30;;;7.93;;
49241;SDS011;35079;52.704;13.814;2023-04-01T18:31:21;12.70;;;7.53;;
49241;SDS011;35079;52.704;13.814;2023-04-01T18:39:40;15.27;;;8.77;;
49241;SDS011;35079;52.704;13.814;2023-04-01T18:44:49;13.73;;;8.10;;
49241;SDS011;35079;52.704;13.814;2023-04-01T18:47:27;12.02;;;8.02;;
49241;SDS011;35079;52.704;13.814;2023-04-01T19:01:27;18.83;;;8.88;;
49241;SDS011;35079;52.704;13.814;2023-04-01T19:09:29;16.08;;;8.02;;
49241;SDS011;35079;52.704;13.814;2023-04-01T19:20:26;15.52;;;8.48;;
49241;SDS011;35079;52.704;13.814;2023-04-01T19:36:51;13.90;;;6.78;;
49241;SDS011;35079;52.704;13.814;2023-04-01T19:45:38;14.13;;;7.50;;
49241;SDS011;35079;52.704;13.814;2023-04-01T19:51:18;14.00;;;7.35;;
49241;SDS011;35079;52.704;13.814;2023-04-01T19:56:52;12.00;;;6.65;;
49241;SDS011;35079;52.704;13.814;2023-04-01T19:59:37;11.02;;;6.38;;
49241;SDS011;35079;52.704;13.814;2023-04-01T20:04:44;10.95;;;6.10;;
49241;SDS011;35079;52.704;13.814;2023-04-01T20:12:54;10.43;;;6.63;;
49241;SDS011;35079;52.704;13.814;2023-04-01T20:15:33;12.63;;;6.68;;
49241;SDS011;35079;52.704;13.814;2023-04-01T20:18:25;11.20;;;6.53;;
49241;SDS011;35079;52.704;13.814;2023-04-01T20:21:03;10.38;;;6.00;;
49241;SDS011;35079;52.704;13.814;2023-04-01T20:26:21;12.43;;;5.50;;
49241;SDS011;35079;52.704;13.814;2023-04-01T20:31:59;10.70;;;6.22;;
49241;SDS011;35079;52.704;13.814;2023-04-01T20:34:22;8.45;;;5.85;;
49241;SDS011;35079;52.704;13.814;2023-04-01T20:42:40;7.43;;;5.57;;
49241;SDS011;35079;52.704;13.814;2023-04-01T20:51:05;7.93;;;5.72;;
49241;SDS011;35079;52.704;13.814;2023-04-01T20:53:36;8.93;;;5.70;;
49241;SDS011;35079;52.704;13.814;2023-04-01T21:06:48;9.38;;;5.10;;
49241;SDS011;35079;52.704;13.814;2023-04-01T21:09:38;9.18;;;5.53;;
49241;SDS011;35079;52.704;13.814;2023-04-01T21:23:49;10.35;;;5.38;;
49241;SDS011;35079;52.704;13.814;2023-04-01T22:08:22;6.10;;;4.18;;
49241;SDS011;35079;52.704;13.814;2023-04-01T22:16:18;7.90;;;4.00;;
49241;SDS011;35079;52.704;13.814;2023-04-01T22:25:03;7.10;;;3.70;;
49241;SDS011;35079;52.704;13.814;2023-04-01T22:27:45;8.32;;;4.25;;
49241;SDS011;35079;52.704;13.814;2023-04-01T22:33:02;8.20;;;3.92;;
49241;SDS011;35079;52.704;13.814;2023-04-01T22:41:27;7.40;;;3.90;;
49241;SDS011;35079;52.704;13.814;2023-04-01T22:43:55;5.72;;;3.63;;
49241;SDS011;35079;52.704;13.814;2023-04-01T22:56:43;6.47;;;4.07;;
49241;SDS011;35079;52.704;13.814;2023-04-01T22:59:31;7.78;;;3.67;;
49241;SDS011;35079;52.704;13.814;2023-04-01T23:02:13;6.20;;;3.40;;
49241;SDS011;35079;52.704;13.814;2023-04-01T23:04:45;6.60;;;3.30;;
49241;SDS011;35079;52.704;13.814;2023-04-01T23:09:48;5.70;;;3.67;;
49241;SDS011;35079;52.704;13.814;2023-04-01T23:12:15;5.53;;;3.50;;
49241;SDS011;35079;52.704;13.814;2023-04-01T23:14:54;7.63;;;4.10;;
49241;SDS011;35079;52.704;13.814;2023-04-01T23:17:35;5.30;;;3.75;;
49241;SDS011;35079;52.704;13.814;2023-04-01T23:28:51;4.97;;;3.63;;
49241;SDS011;35079;52.704;13.814;2023-04-01T23:34:04;6.88;;;3.80;;
49241;SDS011;35079;52.704;13.814;2023-04-01T23:39:04;6.40;;;3.50;;
49241;SDS011;35079;52.704;13.814;2023-04-01T23:41:46;7.43;;;3.70;;
49241;SDS011;35079;52.704;13.814;2023-04-01T23:44:12;7.45;;;3.70;;
49241;SDS011;35079;52.704;13.814;2023-04-01T23:46:39;3.83;;;3.45;;
49241;SDS011;35079;52.704;13.814;2023-04-01T23:49:14;6.22;;;3.65;;
49241;SDS011;35079;52.704;13.814;2023-04-01T23:51:51;7.15;;;3.63;;
49241;SDS011;35079;52.704;13.814;2023-04-01T23:54:29;6.40;;;3.50;;
49241;SDS011;35079;52.704;13.814;2023-04-01T23:56:59;5.25;;;3.33;;
49241;SDS011;35079;52.704;13.814;2023-04-01T23:59:32;5.35;;;3.38;;
